createdAt,value
2019-02-21T00:03:03.559Z,20.10
2019-02-21T00:08:06.706Z,21.33
2019-02-21T00:13:09.028Z,20.23
2019-02-21T00:18:11.250Z,19.43
2019-02-21T00:23:18.077Z,19.17
2019-02-21T00:28:20.061Z,20.17
2019-02-21T00:33:24.523Z,19.33
2019-02-21T00:38:26.698Z,20.00
2019-02-21T00:43:33.498Z,20.03
2019-02-21T00:48:35.618Z,20.50
2019-02-21T00:53:38.374Z,19.33
2019-02-21T00:58:40.765Z,20.33
2019-02-21T01:03:43.616Z,18.77
2019-02-21T01:08:47.602Z,20.30
2019-02-21T01:13:50.130Z,21.33
2019-02-21T01:18:52.675Z,21.33
2019-02-21T01:23:57.726Z,21.57
2019-02-21T01:28:59.829Z,21.17
2019-02-21T01:34:02.011Z,21.67
2019-02-21T01:39:07.016Z,22.07
2019-02-21T01:44:09.043Z,22.60
2019-02-21T01:49:13.957Z,22.57
2019-02-21T01:54:17.358Z,22.47
2019-02-21T01:59:19.446Z,23.10
2019-02-21T02:04:23.770Z,23.53
2019-02-21T02:09:25.818Z,23.97
2019-02-21T02:14:27.831Z,24.37
2019-02-21T02:19:31.176Z,22.73
2019-02-21T02:24:36.506Z,23.90
2019-02-21T02:29:38.786Z,23.63
2019-02-21T02:34:41.072Z,24.13
2019-02-21T02:39:44.665Z,23.60
2019-02-21T02:44:46.702Z,26.13
2019-02-21T02:49:49.834Z,26.80
2019-02-21T02:54:51.836Z,27.97
2019-02-21T03:00:01.344Z,29.00
2019-02-21T03:05:04.054Z,27.70
2019-02-21T03:10:09.152Z,29.10
2019-02-21T03:15:12.259Z,28.33
2019-02-21T03:20:14.417Z,28.93
2019-02-21T03:25:18.253Z,30.23
2019-02-21T03:30:22.049Z,29.80
2019-02-21T03:35:24.086Z,31.40
2019-02-21T03:40:26.425Z,29.20
2019-02-21T03:45:28.539Z,30.73
2019-02-21T03:50:32.222Z,31.20
2019-02-21T03:55:35.397Z,30.73
2019-02-21T04:00:38.347Z,30.83
2019-02-21T04:05:42.891Z,28.80
2019-02-21T04:10:44.957Z,28.73
2019-02-21T04:15:47.087Z,28.93
2019-02-21T04:20:49.120Z,28.63
2019-02-21T04:25:54.168Z,28.53
2019-02-21T04:30:56.476Z,27.63
2019-02-21T04:35:58.484Z,28.20
2019-02-21T04:41:00.770Z,29.77
2019-02-21T04:46:04.794Z,30.43
2019-02-21T04:51:06.967Z,29.27
2019-02-21T04:56:09.020Z,29.10
2019-02-21T05:01:11.340Z,29.43
2019-02-21T05:06:13.346Z,29.13
2019-02-21T05:11:15.375Z,29.63
2019-02-21T05:16:17.376Z,30.30
2019-02-21T05:21:23.699Z,30.90
2019-02-21T05:26:30.709Z,29.93
2019-02-21T05:31:51.089Z,30.60
2019-02-21T05:37:15.803Z,30.10
2019-02-21T05:42:30.238Z,30.63
2019-02-21T05:47:49.941Z,30.27
2019-02-21T05:53:02.165Z,31.17
2019-02-21T05:58:20.188Z,31.33
2019-02-21T06:03:38.624Z,31.90
2019-02-21T06:08:59.209Z,33.07
2019-02-21T06:14:19.550Z,32.33
2019-02-21T06:19:39.717Z,32.47
2019-02-21T06:24:55.770Z,32.33
2019-02-21T06:30:28.417Z,33.77
2019-02-21T06:35:30.477Z,34.10
2019-02-21T06:40:32.929Z,34.53
2019-02-21T06:45:34.926Z,34.83
2019-02-21T06:50:39.773Z,35.33
2019-02-21T06:55:41.856Z,34.80
2019-02-21T07:00:46.488Z,36.07
2019-02-21T07:05:50.347Z,34.73
2019-02-21T07:10:52.963Z,35.27
2019-02-21T07:15:54.999Z,35.20
2019-02-21T07:20:58.867Z,34.83
2019-02-21T07:26:05.791Z,33.03
2019-02-21T07:31:07.994Z,32.90
2019-02-21T07:36:11.078Z,33.07
2019-02-21T07:41:13.533Z,33.60
2019-02-21T07:46:17.803Z,36.87
2019-02-21T07:51:24.269Z,33.30
2019-02-21T07:56:41.156Z,32.67
2019-02-21T08:01:34.567Z,32.43
2019-02-21T08:06:39.124Z,32.63
2019-02-21T08:11:41.560Z,33.40
2019-02-21T08:16:43.629Z,30.30
2019-02-21T08:21:49.727Z,33.60
2019-02-21T08:26:55.408Z,32.53
2019-02-21T08:31:57.460Z,32.10
2019-02-21T08:36:59.573Z,31.83
2019-02-21T08:42:01.756Z,30.77
2019-02-21T08:47:05.930Z,29.93
2019-02-21T08:52:09.244Z,28.07
2019-02-21T08:57:13.227Z,30.60
2019-02-21T09:02:18.207Z,28.63
2019-02-21T09:07:23.504Z,29.63
2019-02-21T09:12:25.634Z,29.40
2019-02-21T09:17:27.694Z,28.23
2019-02-21T09:22:32.764Z,30.90
2019-02-21T09:27:36.991Z,31.80
2019-02-21T09:32:41.898Z,30.80
2019-02-21T09:37:44.674Z,31.83
2019-02-21T09:42:47.852Z,33.57
2019-02-21T09:47:49.855Z,34.10
2019-02-21T09:52:51.913Z,32.57
2019-02-21T09:57:54.325Z,34.90
2019-02-21T10:02:56.860Z,32.13
2019-02-21T10:07:59.464Z,34.83
2019-02-21T10:13:01.484Z,33.37
2019-02-21T10:18:03.979Z,34.23
2019-02-21T10:23:08.187Z,34.30
2019-02-21T10:28:10.216Z,33.93
2019-02-21T10:33:16.445Z,36.20
2019-02-21T10:38:28.170Z,39.77
2019-02-21T10:43:30.895Z,37.33
2019-02-21T10:48:33.157Z,40.60
2019-02-21T10:53:35.355Z,39.63
2019-02-21T10:58:37.410Z,40.63
2019-02-21T11:03:39.609Z,39.13
2019-02-21T11:08:41.693Z,38.30
2019-02-21T11:13:43.899Z,38.13
2019-02-21T11:18:45.916Z,38.77
2019-02-21T11:23:52.808Z,37.47
2019-02-21T11:28:54.821Z,37.43
2019-02-21T11:33:58.245Z,33.73
2019-02-21T11:39:03.706Z,31.80
2019-02-21T11:44:07.623Z,35.17
2019-02-21T11:49:14.968Z,31.97
2019-02-21T11:54:26.581Z,32.20
2019-02-21T11:59:25.252Z,29.07
2019-02-21T12:04:27.337Z,29.87
2019-02-21T12:09:37.299Z,28.63
2019-02-21T12:14:41.317Z,28.40
2019-02-21T12:19:43.650Z,25.53
2019-02-21T12:24:45.643Z,26.30
2019-02-21T12:29:48.002Z,24.40
2019-02-21T12:34:53.053Z,25.47
2019-02-21T12:39:55.396Z,24.67
2019-02-21T12:44:59.555Z,28.33
2019-02-21T12:50:02.472Z,27.37
2019-02-21T12:55:06.534Z,28.03
2019-02-21T13:00:15.833Z,26.17
2019-02-21T13:05:20.639Z,29.73
2019-02-21T13:10:23.109Z,28.10
2019-02-21T13:15:25.146Z,28.77
2019-02-21T13:20:27.663Z,29.20
2019-02-21T13:25:29.938Z,26.97
2019-02-21T13:30:32.299Z,22.87
2019-02-21T13:35:34.704Z,23.70
2019-02-21T13:40:36.917Z,23.47
2019-02-21T13:45:39.224Z,22.73
2019-02-21T13:50:43.550Z,23.37
2019-02-21T13:55:47.217Z,21.33
2019-02-21T14:00:49.468Z,20.97
2019-02-21T14:05:51.599Z,23.70
2019-02-21T14:10:53.732Z,21.70
2019-02-21T14:15:55.729Z,22.57
2019-02-21T14:21:01.215Z,23.90
2019-02-21T14:26:03.330Z,24.03
2019-02-21T14:31:07.389Z,24.60
2019-02-21T14:36:15.438Z,27.27
2019-02-21T14:41:16.806Z,29.23
2019-02-21T14:46:18.944Z,30.17
2019-02-21T14:51:23.875Z,31.10
2019-02-21T14:56:25.940Z,33.10
2019-02-21T15:01:28.073Z,31.07
2019-02-21T15:06:30.075Z,32.63
2019-02-21T15:11:32.240Z,31.63
2019-02-21T15:16:34.264Z,36.57
2019-02-21T15:21:45.265Z,38.23
2019-02-21T15:26:50.106Z,38.13
2019-02-21T15:31:53.893Z,39.97
2019-02-21T15:36:55.994Z,39.70
2019-02-21T15:41:58.261Z,36.97
2019-02-21T15:47:02.416Z,36.77
2019-02-21T15:52:05.590Z,36.30
2019-02-21T15:57:07.870Z,38.17
2019-02-21T16:02:09.896Z,40.13
2019-02-21T16:07:11.932Z,41.07
2019-02-21T16:12:14.432Z,36.73
2019-02-21T16:17:16.856Z,39.07
2019-02-21T16:22:19.084Z,36.13
2019-02-21T16:27:21.050Z,35.70
2019-02-21T16:32:23.264Z,36.90
2019-02-21T16:37:25.375Z,36.17
2019-02-21T16:42:27.394Z,37.50
2019-02-21T16:47:29.454Z,36.97
2019-02-21T16:52:31.494Z,37.50
2019-02-21T16:57:33.573Z,35.73
2019-02-21T17:02:39.731Z,35.60
2019-02-21T17:07:41.699Z,34.63
2019-02-21T17:12:44.060Z,36.77
2019-02-21T17:17:46.104Z,36.37
2019-02-21T17:22:50.112Z,38.47
2019-02-21T17:27:52.197Z,41.13
2019-02-21T17:32:54.439Z,40.07
2019-02-21T17:37:56.466Z,38.87
2019-02-21T17:42:58.891Z,36.97
2019-02-21T17:48:01.021Z,42.00
2019-02-21T17:53:03.487Z,54.50
2019-02-21T17:58:12.401Z,42.70
2019-02-21T18:03:16.256Z,41.70
2019-02-21T18:08:22.728Z,43.10
2019-02-21T18:13:29.577Z,46.00
2019-02-21T18:18:38.952Z,44.67
2019-02-21T18:23:43.754Z,47.00
2019-02-21T18:28:46.989Z,46.80
2019-02-21T18:33:49.267Z,48.60
2019-02-21T18:38:52.416Z,48.17
2019-02-21T18:43:59.467Z,49.67
2019-02-21T18:49:01.613Z,49.70
2019-02-21T18:54:10.918Z,49.53
2019-02-21T18:59:13.671Z,46.97
2019-02-21T19:04:19.366Z,47.37
2019-02-21T19:09:26.852Z,48.60
2019-02-21T19:14:29.312Z,47.13
2019-02-21T19:19:33.758Z,46.07
2019-02-21T19:24:37.188Z,42.97
2019-02-21T19:29:39.632Z,45.37
2019-02-21T19:34:41.630Z,42.87
2019-02-21T19:39:47.402Z,42.53
2019-02-21T19:44:50.043Z,42.50
2019-02-21T19:49:54.523Z,41.80
2019-02-21T19:54:59.015Z,45.27
2019-02-21T20:00:02.893Z,44.07
2019-02-21T20:05:08.876Z,42.17
2019-02-21T20:10:11.849Z,44.77
2019-02-21T20:15:14.680Z,43.20
2019-02-21T20:20:18.260Z,42.97
2019-02-21T20:25:22.563Z,43.00
2019-02-21T20:30:26.611Z,44.07
2019-02-21T20:35:31.289Z,41.33
2019-02-21T20:40:34.755Z,40.73
2019-02-21T20:45:36.708Z,40.73
2019-02-21T20:50:40.203Z,41.37
2019-02-21T20:55:44.008Z,41.50
2019-02-21T21:00:46.267Z,39.30
2019-02-21T21:05:48.789Z,40.23
2019-02-21T21:10:50.924Z,40.63
2019-02-21T21:15:55.819Z,41.03
2019-02-21T21:20:59.133Z,40.50
2019-02-21T21:26:03.332Z,40.50
2019-02-21T21:31:05.667Z,37.87
2019-02-21T21:36:08.445Z,38.30
2019-02-21T21:41:10.701Z,41.03
2019-02-21T21:46:13.497Z,37.40
2019-02-21T21:51:15.603Z,38.27
2019-02-21T21:56:17.613Z,37.23
2019-02-21T22:01:19.913Z,39.03
2019-02-21T22:06:22.141Z,37.77
2019-02-21T22:11:24.415Z,37.40
2019-02-21T22:16:26.429Z,39.10
2019-02-21T22:21:28.457Z,37.00
2019-02-21T22:26:30.467Z,39.07
2019-02-21T22:31:32.509Z,40.20
2019-02-21T22:36:34.510Z,37.83
2019-02-21T22:41:38.175Z,38.80
2019-02-21T22:46:40.197Z,37.47
2019-02-21T22:51:42.613Z,39.10
2019-02-21T22:56:44.621Z,37.30
2019-02-21T23:01:47.521Z,37.73
2019-02-21T23:07:26.480Z,38.67
2019-02-21T23:12:31.352Z,38.83
2019-02-21T23:17:33.344Z,39.80
2019-02-21T23:22:35.721Z,40.47
2019-02-21T23:27:39.528Z,39.60
2019-02-21T23:32:41.584Z,37.57
2019-02-21T23:37:43.703Z,37.60
2019-02-21T23:42:45.985Z,39.70
2019-02-21T23:47:49.928Z,38.27
2019-02-21T23:52:52.296Z,39.17
2019-02-21T23:57:54.464Z,39.27
